Avon, Minnesota
Current Conditions -  °F | °C
As of 2:53 AM on Sunday 21 Dec 2014 (Local Time) from KSTC Reporting Station
Haze Haze  
Wind Chill: 23°   Ceiling: 600
Heat Index: 32°   Visibility: 5mi
Dew Point: 28°   Wind: 13mph
Humidity: 85%   Direction: 160°SSE
Pressure: 29.95"   Gusts: NA
Location:  45.61°N, 94.45°W
Report Text: KSTC 210853Z AUTO 16011KT 5SM BR OVC006 00/M02 A2995 RMK AO2 SLP163 T00001022 58025 $
Loading
Personal Weather Stations






























Interactive Weather Map New forecast layout! Learn more

10-Day Weather Forecast

Advertisements
Track Severe Weather on mobile